Time;durP1;ratioP1;P1;durP2;ratioP2;P2;SDS_P1;SDS_P2;PMS_P1;PMS_P2;Temp;Humidity;BMP_temperature;BMP_pressure;BME280_temperature;BME280_humidity;BME280_pressure;Samples;Min_cycle;Max_cycle;Signal;HPM_P1;HPM_P2
2021/04/26 00:01:55;;;;;;;5.00;2.50;;;-1.70;99.90;;;;;;5057320;28;20120;-79
2021/04/26 00:04:21;;;;;;;5.28;2.75;;;-1.70;99.90;;;;;;5056424;28;20041;-80
2021/04/26 00:06:48;;;;;;;5.07;3.08;;;-1.70;99.90;;;;;;5057588;28;20135;-79
2021/04/26 00:09:14;;;;;;;7.15;2.97;;;-1.70;99.90;;;;;;5056670;28;20079;-79
2021/04/26 00:11:40;;;;;;;5.95;3.13;;;-1.60;99.90;;;;;;5056436;28;20485;-79
2021/04/26 00:14:08;;;;;;;7.93;2.97;;;-1.60;99.90;;;;;;5056762;28;20476;-79
2021/04/26 00:16:34;;;;;;;6.72;2.90;;;-1.50;99.90;;;;;;5056744;28;20049;-80
2021/04/26 00:19:03;;;;;;;5.30;2.45;;;-1.60;99.90;;;;;;5057100;28;20049;-80
2021/04/26 00:21:30;;;;;;;4.53;2.75;;;-1.70;99.90;;;;;;5057499;28;20080;-80
2021/04/26 00:23:57;;;;;;;7.18;2.85;;;-1.60;99.90;;;;;;5057002;28;20049;-80
2021/04/26 00:26:24;;;;;;;4.45;3.08;;;-1.60;99.90;;;;;;5059249;28;20053;-80
2021/04/26 00:28:52;;;;;;;6.63;2.85;;;-1.60;99.90;;;;;;5057291;28;20076;-80
2021/04/26 00:31:19;;;;;;;5.38;2.67;;;-1.60;99.90;;;;;;5059327;28;20102;-80
2021/04/26 00:33:46;;;;;;;3.75;2.25;;;-1.60;99.90;;;;;;5058364;28;20085;-80
2021/04/26 00:36:13;;;;;;;5.63;2.83;;;-1.60;99.90;;;;;;5059555;28;20140;-80
2021/04/26 00:38:40;;;;;;;8.10;3.15;;;-1.60;99.90;;;;;;5058475;28;20458;-80
2021/04/26 00:41:06;;;;;;;6.10;2.65;;;-1.70;99.90;;;;;;5058687;28;20080;-80
2021/04/26 00:43:33;;;;;;;6.05;2.90;;;-1.70;99.90;;;;;;5059363;28;20467;-81
2021/04/26 00:45:59;;;;;;;3.70;2.63;;;-1.60;99.90;;;;;;5059768;28;20107;-81
2021/04/26 00:48:25;;;;;;;6.00;3.08;;;-1.70;99.90;;;;;;5060947;28;20061;-81
2021/04/26 00:50:52;;;;;;;5.38;2.80;;;-1.70;99.90;;;;;;5060570;28;20053;-80
2021/04/26 00:53:18;;;;;;;4.47;2.72;;;-1.90;99.90;;;;;;5056452;28;20103;-80
2021/04/26 00:55:45;;;;;;;6.78;2.80;;;-2.00;99.90;;;;;;5056198;28;20124;-80
2021/04/26 00:58:11;;;;;;;5.57;2.72;;;-2.10;99.90;;;;;;5055581;28;20073;-81
2021/04/26 01:00:38;;;;;;;8.25;3.00;;;-2.20;99.90;;;;;;5056201;28;20164;-80
2021/04/26 01:03:04;;;;;;;5.53;2.97;;;-2.20;99.90;;;;;;5055887;28;20071;-80
2021/04/26 01:05:34;;;;;;;6.20;3.03;;;-2.30;99.90;;;;;;5055665;28;20053;-80
2021/04/26 01:08:01;;;;;;;4.57;2.63;;;-2.40;99.90;;;;;;5055441;28;20087;-80
2021/04/26 01:10:31;;;;;;;6.43;3.05;;;-2.30;99.90;;;;;;5055548;28;20049;-80
2021/04/26 01:13:28;;;;;;;5.35;2.70;;;-2.40;99.90;;;;;;5055435;28;20507;-80
2021/04/26 01:16:07;;;;;;;3.83;2.75;;;-2.40;99.90;;;;;;5053937;28;20049;-80
2021/04/26 01:19:18;;;;;;;6.53;3.83;;;-2.50;99.90;;;;;;5054507;28;20478;-80
2021/04/26 01:22:19;;;;;;;6.65;2.90;;;-2.50;99.90;;;;;;5053853;28;20080;-80
2021/04/26 01:24:56;;;;;;;7.85;2.78;;;-2.40;99.90;;;;;;5053593;28;20555;-80
2021/04/26 01:27:41;;;;;;;5.43;2.88;;;-2.30;99.90;;;;;;5055078;28;20523;-80
2021/04/26 01:30:30;;;;;;;9.75;3.53;;;-2.30;99.90;;;;;;5055107;28;20148;-80
2021/04/26 01:33:01;;;;;;;4.70;2.92;;;-2.30;99.90;;;;;;5053354;28;20483;-79
2021/04/26 01:35:29;;;;;;;4.18;2.72;;;-2.30;99.90;;;;;;5053291;28;20041;-80
2021/04/26 01:38:01;;;;;;;7.53;2.72;;;-2.30;99.90;;;;;;5053434;28;20076;-79
2021/04/26 01:40:27;;;;;;;5.03;2.93;;;-2.40;99.90;;;;;;5052818;28;20055;-80
2021/04/26 01:42:58;;;;;;;2.92;2.65;;;-2.40;99.90;;;;;;5052746;28;20397;-80
2021/04/26 01:45:25;;;;;;;6.82;2.90;;;-2.40;99.90;;;;;;5056128;28;20053;-80
2021/04/26 01:47:55;;;;;;;5.00;2.60;;;-2.40;99.90;;;;;;5057214;28;20125;-80
2021/04/26 01:50:22;;;;;;;4.15;3.05;;;-2.40;99.90;;;;;;5055678;28;20087;-80
2021/04/26 01:52:50;;;;;;;4.30;3.10;;;-2.40;99.90;;;;;;5056934;28;20483;-79
2021/04/26 01:55:19;;;;;;;6.88;3.08;;;-2.40;99.90;;;;;;5058787;28;20049;-80
2021/04/26 01:57:47;;;;;;;4.35;3.20;;;-2.60;99.90;;;;;;5058301;28;20107;-80
2021/04/26 02:00:26;;;;;;;5.60;3.40;;;-2.60;99.90;;;;;;5057792;28;20057;-81
2021/04/26 02:02:53;;;;;;;7.50;3.00;;;-2.60;99.90;;;;;;5057602;28;20381;-80
2021/04/26 02:05:20;;;;;;;4.93;3.47;;;-2.70;99.90;;;;;;5057999;28;20045;-81
2021/04/26 02:07:49;;;;;;;7.15;3.42;;;-2.70;99.90;;;;;;5058601;28;20099;-81
2021/04/26 02:10:18;;;;;;;5.80;2.95;;;-2.60;99.90;;;;;;5056742;28;20113;-79
2021/04/26 02:12:46;;;;;;;6.50;3.30;;;-2.60;99.90;;;;;;5055718;28;20083;-80
2021/04/26 02:15:18;;;;;;;5.40;3.20;;;-2.60;99.90;;;;;;5056809;28;20139;-79
2021/04/26 02:17:46;;;;;;;7.18;3.42;;;-2.60;99.90;;;;;;5056044;28;20080;-80
2021/04/26 02:20:15;;;;;;;4.43;3.08;;;-2.60;99.90;;;;;;5055863;28;20135;-79
2021/04/26 02:22:42;;;;;;;4.05;3.30;;;-2.70;99.90;;;;;;5056606;28;20489;-79
2021/04/26 02:25:11;;;;;;;7.13;3.20;;;-2.80;99.90;;;;;;5055700;28;20613;-79
2021/04/26 02:27:37;;;;;;;9.60;3.35;;;-3.00;99.90;;;;;;5055431;28;20045;-79
2021/04/26 02:30:06;;;;;;;5.03;2.70;;;-3.00;99.90;;;;;;5056414;28;20049;-79
2021/04/26 02:33:01;;;;;;;6.35;3.25;;;-3.00;99.90;;;;;;5056021;28;20500;-79
2021/04/26 02:35:44;;;;;;;5.63;3.08;;;-3.00;99.90;;;;;;5055298;28;20052;-79
2021/04/26 02:38:24;;;;;;;5.72;3.17;;;-3.10;99.90;;;;;;5055218;28;20080;-79
2021/04/26 02:40:53;;;;;;;3.55;3.13;;;-3.20;99.90;;;;;;5054779;28;20088;-79
2021/04/26 02:43:20;;;;;;;4.53;2.75;;;-3.30;99.90;;;;;;5055089;28;20103;-79
2021/04/26 02:45:52;;;;;;;4.63;3.30;;;-3.50;99.90;;;;;;5055831;28;20049;-78
2021/04/26 02:48:21;;;;;;;6.78;3.22;;;-3.60;99.90;;;;;;5055630;28;20049;-79
2021/04/26 02:50:51;;;;;;;6.20;3.28;;;-3.60;99.90;;;;;;5054658;28;20098;-78
2021/04/26 02:53:18;;;;;;;4.38;3.10;;;-3.70;99.90;;;;;;5056379;28;20083;-78
2021/04/26 02:55:46;;;;;;;7.28;3.53;;;-3.60;99.90;;;;;;5056868;28;20088;-79
2021/04/26 02:58:13;;;;;;;11.38;3.35;;;-3.50;99.90;;;;;;5055961;28;20500;-79
2021/04/26 03:00:40;;;;;;;5.07;3.38;;;-3.50;99.90;;;;;;5055598;28;20057;-79
2021/04/26 03:03:07;;;;;;;6.35;3.53;;;-3.60;99.90;;;;;;5056931;28;20045;-79
2021/04/26 03:05:35;;;;;;;6.90;3.30;;;-3.50;99.90;;;;;;5056235;28;20049;-79
2021/04/26 03:08:01;;;;;;;5.75;3.28;;;-3.40;99.90;;;;;;5056492;28;20106;-79
2021/04/26 03:10:28;;;;;;;4.60;3.38;;;-3.40;99.90;;;;;;5055701;28;20069;-79
2021/04/26 03:12:54;;;;;;;5.18;2.78;;;-3.30;99.90;;;;;;5055842;28;20111;-80
2021/04/26 03:15:29;;;;;;;7.28;3.10;;;-3.40;99.90;;;;;;5056984;28;20106;-79
2021/04/26 03:17:56;;;;;;;4.10;2.70;;;-3.40;99.90;;;;;;5038982;28;20092;-79
2021/04/26 03:20:24;;;;;;;7.15;3.22;;;-3.40;99.90;;;;;;5055547;28;20189;-80
2021/04/26 03:22:51;;;;;;;4.82;2.83;;;-3.40;99.90;;;;;;5056929;28;20407;-79
2021/04/26 03:25:21;;;;;;;3.40;2.83;;;-3.40;99.90;;;;;;5057070;28;20114;-80
2021/04/26 03:27:51;;;;;;;4.10;2.67;;;-3.50;99.90;;;;;;5055341;28;20132;-79
2021/04/26 03:30:20;;;;;;;3.00;2.50;;;-3.50;99.90;;;;;;5053711;28;20080;-79
2021/04/26 03:32:48;;;;;;;11.38;3.03;;;-3.60;99.90;;;;;;5053156;28;20072;-79
2021/04/26 03:35:17;;;;;;;4.63;2.53;;;-3.60;99.90;;;;;;5055537;28;20128;-79
2021/04/26 03:37:48;;;;;;;3.65;2.97;;;-3.60;99.90;;;;;;5055569;28;20136;-79
2021/04/26 03:40:24;;;;;;;4.22;2.97;;;-3.60;99.90;;;;;;5055073;28;20551;-79
2021/04/26 03:43:00;;;;;;;5.45;2.70;;;-3.60;99.90;;;;;;5054926;28;20087;-79
2021/04/26 03:45:27;;;;;;;4.75;3.00;;;-3.60;99.90;;;;;;5054346;28;20415;-79
2021/04/26 03:47:54;;;;;;;5.88;2.72;;;-3.70;99.90;;;;;;5053868;28;20571;-79
2021/04/26 03:50:23;;;;;;;4.57;2.75;;;-3.70;99.90;;;;;;5054683;28;20463;-79
2021/04/26 03:52:50;;;;;;;3.30;2.97;;;-3.90;99.90;;;;;;5053723;28;20168;-79
2021/04/26 03:55:21;;;;;;;4.88;2.88;;;-3.90;99.90;;;;;;5053866;28;20579;-79
2021/04/26 03:57:48;;;;;;;7.80;2.95;;;-4.00;99.90;;;;;;5054966;28;20132;-79
2021/04/26 04:00:17;;;;;;;4.28;3.17;;;-3.90;99.90;;;;;;5055593;28;20049;-80
2021/04/26 04:02:45;;;;;;;10.40;3.15;;;-3.80;99.90;;;;;;5055834;28;20109;-80
2021/04/26 04:05:13;;;;;;;4.30;2.80;;;-3.70;99.90;;;;;;5055922;28;20049;-80
2021/04/26 04:07:39;;;;;;;4.90;2.88;;;-3.70;99.90;;;;;;5058454;28;20131;-79
2021/04/26 04:10:08;;;;;;;4.07;2.95;;;-3.70;99.90;;;;;;5059270;28;20132;-79
2021/04/26 04:12:35;;;;;;;4.18;2.72;;;-3.70;99.90;;;;;;5059265;28;20080;-79
2021/04/26 04:15:02;;;;;;;4.55;2.67;;;-3.70;99.90;;;;;;5058252;28;20131;-80
2021/04/26 04:17:29;;;;;;;6.78;2.88;;;-3.70;99.90;;;;;;5058071;28;20136;-80
2021/04/26 04:19:55;;;;;;;4.13;2.65;;;-3.70;99.90;;;;;;5059264;28;20061;-79
2021/04/26 04:22:21;;;;;;;6.07;3.30;;;-3.90;99.90;;;;;;5058191;28;20508;-80
2021/04/26 04:24:48;;;;;;;4.47;2.90;;;-3.90;99.90;;;;;;5059494;28;20095;-79
2021/04/26 04:27:14;;;;;;;4.93;2.92;;;-3.90;99.90;;;;;;5058083;28;20083;-80
2021/04/26 04:29:40;;;;;;;9.45;3.17;;;-4.00;99.90;;;;;;5058693;28;20076;-80
2021/04/26 04:32:07;;;;;;;5.43;3.20;;;-4.10;99.90;;;;;;5059189;28;20084;-80
2021/04/26 04:34:34;;;;;;;7.72;3.53;;;-4.00;99.90;;;;;;5058742;28;20077;-80
2021/04/26 04:37:00;;;;;;;9.82;3.42;;;-4.00;99.90;;;;;;5058764;28;20049;-80
2021/04/26 04:39:26;;;;;;;5.00;3.13;;;-3.90;99.90;;;;;;5060408;28;20140;-80
2021/04/26 04:41:53;;;;;;;14.75;3.97;;;-3.80;99.90;;;;;;5059453;28;20531;-80
2021/04/26 04:44:19;;;;;;;3.67;3.03;;;-3.70;99.90;;;;;;5059614;28;20445;-78
2021/04/26 04:46:46;;;;;;;8.52;3.35;;;-3.60;99.90;;;;;;5056831;28;20045;-79
2021/04/26 04:49:12;;;;;;;19.35;5.00;;;-3.50;99.90;;;;;;5054632;28;20049;-79
2021/04/26 04:51:39;;;;;;;20.35;6.68;;;-3.20;99.90;;;;;;5055097;28;20048;-78
2021/04/26 04:54:05;;;;;;;17.20;5.72;;;-2.70;99.90;;;;;;5054775;28;20049;-78
2021/04/26 04:56:32;;;;;;;11.43;4.72;;;-2.30;99.90;;;;;;5055095;28;20479;-78
2021/04/26 04:58:58;;;;;;;7.00;4.03;;;-2.20;99.90;;;;;;5055756;28;20049;-78
2021/04/26 05:01:24;;;;;;;11.07;2.83;;;-2.10;99.90;;;;;;5056179;28;20071;-78
2021/04/26 05:03:50;;;;;;;10.10;3.00;;;-2.10;99.90;;;;;;5055777;28;20084;-80
2021/04/26 05:06:17;;;;;;;2.72;2.47;;;-1.90;99.90;;;;;;5055193;28;20456;-78
2021/04/26 05:08:44;;;;;;;2.10;1.90;;;-1.70;99.90;;;;;;5054380;28;20139;-79
2021/04/26 05:11:10;;;;;;;8.35;2.28;;;-1.40;99.90;;;;;;5054358;28;20071;-78
2021/04/26 05:13:36;;;;;;;10.13;3.00;;;-1.10;99.90;;;;;;5055249;28;20099;-78
2021/04/26 05:16:03;;;;;;;5.30;2.15;;;-0.70;99.90;;;;;;5055119;28;20103;-78
2021/04/26 05:18:30;;;;;;;4.10;1.80;;;-0.10;99.90;;;;;;5053417;28;20076;-78
2021/04/26 05:20:57;;;;;;;8.20;2.47;;;0.60;99.90;;;;;;5054128;28;20492;-78
2021/04/26 05:23:23;;;;;;;8.23;2.10;;;1.20;99.90;;;;;;5056523;28;20053;-78
2021/04/26 05:25:50;;;;;;;3.45;1.58;;;2.20;99.90;;;;;;5055287;28;20484;-77
2021/04/26 05:28:16;;;;;;;9.45;2.28;;;3.00;99.90;;;;;;5058648;28;20496;-77
2021/04/26 05:30:43;;;;;;;5.80;4.50;;;3.60;99.90;;;;;;5065358;28;20041;-78
2021/04/26 05:33:09;;;;;;;11.43;6.40;;;4.60;99.90;;;;;;5075322;28;20067;-78
2021/04/26 05:35:35;;;;;;;7.47;3.47;;;5.60;99.90;;;;;;5077111;28;20076;-78
2021/04/26 05:38:14;;;;;;;5.72;3.03;;;5.90;99.90;;;;;;5077061;28;20088;-78
2021/04/26 05:40:40;;;;;;;4.93;2.90;;;6.20;99.90;;;;;;5075750;28;20056;-78
2021/04/26 05:43:07;;;;;;;18.30;2.83;;;6.70;99.90;;;;;;5077235;28;20076;-78
2021/04/26 05:45:35;;;;;;;4.63;2.15;;;6.30;99.90;;;;;;5076011;28;20707;-78
2021/04/26 05:48:02;;;;;;;4.82;1.83;;;7.00;99.90;;;;;;5076548;28;20567;-78
2021/04/26 05:50:32;;;;;;;6.60;3.13;;;7.30;99.90;;;;;;5077971;28;20044;-78
2021/04/26 05:52:59;;;;;;;7.25;2.30;;;7.00;99.90;;;;;;5078096;28;20070;-79
2021/04/26 05:55:26;;;;;;;3.35;1.83;;;7.00;99.90;;;;;;5078959;28;20045;-79
2021/04/26 05:57:52;;;;;;;8.15;2.80;;;8.20;99.90;;;;;;5078620;28;20079;-79
2021/04/26 06:00:19;;;;;;;2.63;1.60;;;8.30;97.00;;;;;;5078989;28;20084;-80
2021/04/26 06:02:45;;;;;;;5.35;2.00;;;8.60;96.10;;;;;;5079407;28;20462;-80
2021/04/26 06:05:12;;;;;;;4.20;1.70;;;9.20;91.90;;;;;;5075345;28;20075;-78
2021/04/26 06:07:39;;;;;;;8.60;1.70;;;9.40;90.30;;;;;;5076552;28;20072;-78
2021/04/26 06:10:06;;;;;;;5.80;1.25;;;8.60;91.20;;;;;;5074932;28;20041;-78
2021/04/26 06:12:33;;;;;;;11.23;2.10;;;9.80;90.10;;;;;;5076388;28;20128;-78
2021/04/26 06:14:59;;;;;;;7.35;1.60;;;10.10;84.70;;;;;;5075271;28;20088;-78
2021/04/26 06:17:26;;;;;;;4.15;1.33;;;10.60;82.40;;;;;;5074931;28;20080;-78
2021/04/26 06:19:52;;;;;;;3.47;1.42;;;11.20;78.90;;;;;;5075171;28;20095;-78
2021/04/26 06:22:18;;;;;;;13.45;1.83;;;12.50;74.10;;;;;;5075294;28;20078;-78
2021/04/26 06:24:45;;;;;;;12.02;1.92;;;12.60;71.80;;;;;;5076324;28;20048;-78
2021/04/26 06:27:11;;;;;;;5.57;1.80;;;12.00;72.20;;;;;;5074641;28;20132;-78
2021/04/26 06:29:37;;;;;;;14.95;3.83;;;12.10;72.50;;;;;;5075000;28;20384;-77
2021/04/26 06:32:04;;;;;;;13.77;4.43;;;12.50;71.40;;;;;;5073549;28;20687;-78
2021/04/26 06:34:30;;;;;;;19.08;4.43;;;12.10;69.80;;;;;;5074324;28;20498;-77
2021/04/26 06:36:57;;;;;;;24.65;3.13;;;13.10;69.20;;;;;;5074174;28;20052;-77
2021/04/26 06:39:23;;;;;;;22.45;2.90;;;13.30;67.20;;;;;;5076631;28;20088;-78
2021/04/26 06:41:50;;;;;;;26.52;3.28;;;13.50;65.90;;;;;;5076680;28;20095;-78
2021/04/26 06:44:16;;;;;;;27.02;3.25;;;13.20;65.20;;;;;;5074907;28;20075;-78
2021/04/26 06:46:42;;;;;;;25.15;2.80;;;13.10;65.20;;;;;;5075471;28;20045;-78
2021/04/26 06:49:09;;;;;;;16.02;2.97;;;13.50;63.10;;;;;;5076432;28;20050;-78
2021/04/26 06:51:36;;;;;;;20.15;3.15;;;14.60;60.80;;;;;;5074474;28;20044;-78
2021/04/26 06:54:02;;;;;;;11.60;1.60;;;15.90;58.30;;;;;;5077104;28;20052;-78
2021/04/26 06:56:30;;;;;;;20.25;2.80;;;16.80;55.30;;;;;;5076942;28;20087;-79
2021/04/26 06:58:56;;;;;;;47.38;5.00;;;17.30;52.50;;;;;;5076980;28;20052;-78
2021/04/26 07:01:23;;;;;;;14.57;2.65;;;17.00;51.90;;;;;;5075673;28;20496;-79
2021/04/26 07:03:49;;;;;;;14.48;2.40;;;16.50;52.80;;;;;;5076346;28;20541;-78
2021/04/26 07:06:17;;;;;;;10.75;2.17;;;16.20;52.30;;;;;;5074000;28;20068;-79
2021/04/26 07:08:43;;;;;;;11.57;1.70;;;16.40;52.80;;;;;;5073107;28;20491;-78
2021/04/26 07:11:09;;;;;;;9.98;1.98;;;16.00;53.60;;;;;;5074439;28;20103;-79
2021/04/26 07:13:36;;;;;;;5.90;1.60;;;16.00;54.30;;;;;;5078360;28;20084;-79
2021/04/26 07:16:02;;;;;;;4.47;1.45;;;16.30;52.50;;;;;;5077388;28;20055;-80
2021/04/26 07:18:28;;;;;;;4.68;1.52;;;16.10;51.70;;;;;;5077760;28;20075;-80
2021/04/26 07:20:55;;;;;;;2.38;1.48;;;17.10;51.00;;;;;;5078437;28;20055;-79
2021/04/26 07:23:21;;;;;;;3.17;1.70;;;16.70;50.40;;;;;;5074270;28;20441;-79
2021/04/26 07:25:48;;;;;;;7.10;1.60;;;16.90;50.60;;;;;;5072989;28;20472;-79
2021/04/26 07:28:14;;;;;;;7.45;1.38;;;16.30;51.70;;;;;;5074253;28;20079;-79
2021/04/26 07:30:40;;;;;;;6.35;1.48;;;17.30;50.70;;;;;;5073334;28;20457;-79
2021/04/26 07:33:07;;;;;;;8.80;1.33;;;17.60;50.60;;;;;;5072912;28;20044;-79
2021/04/26 07:35:33;;;;;;;8.25;1.40;;;17.40;45.40;;;;;;5073599;28;20064;-78
2021/04/26 07:37:59;;;;;;;2.72;0.88;;;17.50;46.70;;;;;;5072560;28;20114;-79
2021/04/26 07:40:26;;;;;;;1.88;0.85;;;17.40;45.80;;;;;;5074401;28;20131;-79
2021/04/26 07:42:52;;;;;;;2.10;0.60;;;17.00;45.20;;;;;;5075661;28;20579;-78
2021/04/26 07:45:21;;;;;;;2.15;0.88;;;16.40;46.50;;;;;;5075871;28;20060;-79
2021/04/26 07:47:52;;;;;;;3.90;1.20;;;15.90;46.40;;;;;;5077674;28;20072;-78
2021/04/26 07:50:18;;;;;;;12.73;1.33;;;15.20;49.70;;;;;;5076519;28;20470;-77
2021/04/26 07:52:45;;;;;;;5.65;0.90;;;14.80;48.20;;;;;;5075860;28;20102;-79
2021/04/26 07:55:12;;;;;;;1.48;0.50;;;14.90;46.30;;;;;;5076312;28;20087;-79
2021/04/26 07:57:38;;;;;;;4.57;0.85;;;15.90;45.40;;;;;;5077594;28;20076;-79
2021/04/26 08:00:07;;;;;;;8.32;0.90;;;16.70;45.50;;;;;;5077120;28;20052;-79
2021/04/26 08:02:33;;;;;;;0.73;0.60;;;16.20;45.50;;;;;;5076033;28;20087;-79
2021/04/26 08:04:59;;;;;;;3.15;1.05;;;16.80;45.40;;;;;;5077070;28;20068;-79
2021/04/26 08:07:26;;;;;;;3.45;1.38;;;17.00;46.20;;;;;;5076116;28;20041;-79
2021/04/26 08:09:52;;;;;;;4.70;0.90;;;16.50;45.00;;;;;;5076709;28;20127;-79
2021/04/26 08:12:20;;;;;;;5.30;0.98;;;16.50;45.40;;;;;;5076007;28;20136;-79
2021/04/26 08:14:47;;;;;;;1.27;0.90;;;16.10;44.90;;;;;;5077621;28;20044;-79
2021/04/26 08:17:13;;;;;;;1.65;1.30;;;15.40;46.00;;;;;;5076099;28;20131;-80
2021/04/26 08:19:40;;;;;;;0.98;0.80;;;16.30;48.10;;;;;;5077276;28;20060;-79
2021/04/26 08:22:08;;;;;;;0.98;0.60;;;15.80;45.80;;;;;;5077090;28;20091;-80
2021/04/26 08:24:34;;;;;;;6.90;1.23;;;16.20;44.60;;;;;;5078043;28;20478;-79
2021/04/26 08:27:00;;;;;;;3.33;0.80;;;16.40;44.80;;;;;;5076887;28;20084;-79
2021/04/26 08:29:26;;;;;;;5.20;1.00;;;16.50;45.50;;;;;;5078095;28;20052;-79
2021/04/26 08:31:53;;;;;;;2.60;0.95;;;18.10;44.40;;;;;;5078255;28;20045;-80
2021/04/26 08:34:19;;;;;;;0.60;0.60;;;18.30;41.70;;;;;;5077391;28;20052;-79
2021/04/26 08:36:46;;;;;;;0.70;0.60;;;17.60;42.10;;;;;;5077679;28;20045;-79
2021/04/26 08:39:14;;;;;;;1.48;0.43;;;17.70;41.70;;;;;;5076178;28;20068;-79
2021/04/26 08:41:41;;;;;;;0.80;0.60;;;17.70;40.90;;;;;;5074272;28;20132;-79
2021/04/26 08:44:08;;;;;;;2.88;1.13;;;17.40;41.20;;;;;;5074773;28;20049;-78
2021/04/26 08:46:35;;;;;;;0.88;0.50;;;17.90;40.10;;;;;;5075721;28;20083;-79
2021/04/26 08:49:03;;;;;;;1.00;0.52;;;18.80;39.30;;;;;;5074840;28;20102;-78
2021/04/26 08:51:30;;;;;;;4.97;0.70;;;17.60;38.80;;;;;;5074899;28;20458;-78
2021/04/26 08:53:57;;;;;;;2.40;0.50;;;16.60;39.70;;;;;;5074770;28;20108;-78
2021/04/26 08:56:23;;;;;;;6.45;0.50;;;16.90;39.70;;;;;;5075433;28;20056;-79
2021/04/26 08:58:49;;;;;;;6.38;0.80;;;17.30;40.00;;;;;;5074134;28;20091;-78
2021/04/26 09:01:16;;;;;;;31.65;1.75;;;17.50;38.80;;;;;;5075550;28;20070;-79
2021/04/26 09:03:42;;;;;;;10.55;0.80;;;16.50;38.80;;;;;;5078455;28;20123;-79
2021/04/26 09:06:12;;;;;;;5.20;0.52;;;15.80;40.60;;;;;;5078189;28;20131;-80
2021/04/26 09:08:38;;;;;;;0.95;0.40;;;15.90;39.90;;;;;;5076052;28;20079;-79
2021/04/26 09:11:06;;;;;;;4.40;0.82;;;16.70;39.00;;;;;;5078323;28;20056;-80
2021/04/26 09:13:42;;;;;;;10.25;1.00;;;16.70;39.80;;;;;;5077153;28;20526;-79
2021/04/26 09:16:22;;;;;;;4.93;0.75;;;17.00;40.60;;;;;;5076591;28;20136;-79
2021/04/26 09:18:54;;;;;;;8.05;1.17;;;17.20;39.90;;;;;;5079183;28;20080;-79
2021/04/26 09:21:28;;;;;;;5.30;0.60;;;16.60;40.30;;;;;;5077663;28;20475;-80
2021/04/26 09:24:24;;;;;;;1.10;0.50;;;16.60;39.60;;;;;;5077906;28;20050;-80
2021/04/26 09:26:53;;;;;;;2.25;0.90;;;17.30;39.60;;;;;;5079048;28;20055;-80
2021/04/26 09:29:21;;;;;;;4.47;0.65;;;18.20;37.80;;;;;;5081705;28;20052;-79
2021/04/26 09:32:13;;;;;;;3.05;0.80;;;18.00;38.30;;;;;;5081512;28;20074;-79
2021/04/26 09:34:41;;;;;;;1.70;0.40;;;17.50;38.10;;;;;;5076133;28;20058;-79
2021/04/26 09:37:28;;;;;;;1.20;0.50;;;16.50;39.50;;;;;;5076934;28;20059;-80
2021/04/26 09:40:11;;;;;;;15.50;0.85;;;17.00;39.80;;;;;;5077283;28;20122;-79
2021/04/26 09:42:48;;;;;;;2.17;1.10;;;16.00;39.50;;;;;;5076300;28;20090;-79
2021/04/26 09:45:19;;;;;;;3.22;0.60;;;15.70;40.40;;;;;;5076038;28;20090;-79
2021/04/26 09:47:48;;;;;;;3.47;0.77;;;16.40;40.40;;;;;;5078369;28;20045;-80
2021/04/26 09:50:15;;;;;;;1.95;0.63;;;17.30;39.40;;;;;;5076388;28;20048;-79
2021/04/26 09:52:42;;;;;;;1.05;0.70;;;17.10;38.60;;;;;;5077692;28;20056;-80
2021/04/26 09:55:29;;;;;;;1.13;0.70;;;17.10;40.10;;;;;;5078813;28;20052;-79
2021/04/26 09:57:57;;;;;;;3.28;0.43;;;16.50;40.90;;;;;;5075630;28;20105;-79
2021/04/26 10:00:23;;;;;;;1.80;0.50;;;17.00;40.00;;;;;;5075304;28;20052;-77
2021/04/26 10:02:51;;;;;;;5.93;1.35;;;16.90;38.70;;;;;;5075706;28;20059;-83
2021/04/26 10:05:17;;;;;;;1.85;0.50;;;16.40;40.40;;;;;;5076453;28;20548;-79
2021/04/26 10:07:48;;;;;;;2.00;0.93;;;16.50;40.20;;;;;;5074551;28;20103;-78
2021/04/26 10:10:15;;;;;;;7.93;0.85;;;18.10;41.00;;;;;;5076486;28;20410;-78
2021/04/26 10:12:42;;;;;;;1.75;0.70;;;19.30;37.70;;;;;;5076047;28;20078;-79
2021/04/26 10:15:12;;;;;;;4.80;0.93;;;19.70;35.60;;;;;;5074260;28;20087;-78
2021/04/26 10:17:42;;;;;;;2.25;0.70;;;19.70;35.00;;;;;;5073535;28;20100;-79
2021/04/26 10:20:10;;;;;;;2.38;0.80;;;19.90;34.90;;;;;;5075095;28;20135;-79
2021/04/26 10:22:39;;;;;;;3.72;0.82;;;20.20;36.90;;;;;;5075179;28;20055;-81
2021/04/26 10:25:09;;;;;;;1.15;0.90;;;18.60;35.90;;;;;;5073517;28;20131;-79
2021/04/26 10:27:39;;;;;;;1.40;0.98;;;18.90;37.50;;;;;;5073192;28;20044;-79
2021/04/26 10:30:15;;;;;;;0.77;0.73;;;19.70;37.50;;;;;;5063388;28;20047;-79
2021/04/26 10:33:03;;;;;;;3.05;0.88;;;19.50;36.00;;;;;;5053558;28;20044;-78
2021/04/26 10:35:48;;;;;;;0.68;0.60;;;19.20;36.50;;;;;;5053495;28;20045;-80
2021/04/26 10:38:35;;;;;;;2.33;0.60;;;17.70;36.30;;;;;;5052776;28;20045;-78
2021/04/26 10:41:04;;;;;;;2.17;0.90;;;17.70;37.60;;;;;;5053709;28;20128;-81
2021/04/26 10:43:32;;;;;;;3.22;0.77;;;17.20;38.60;;;;;;5054403;28;20040;-78
2021/04/26 10:46:25;;;;;;;3.70;0.73;;;17.30;39.00;;;;;;5053075;28;20056;-79
2021/04/26 10:49:04;;;;;;;1.08;0.50;;;17.80;37.40;;;;;;5051348;28;20045;-78
2021/04/26 10:51:32;;;;;;;4.00;0.80;;;18.70;36.10;;;;;;5052822;28;20049;-80
2021/04/26 10:54:04;;;;;;;1.50;0.65;;;19.20;36.10;;;;;;5054842;28;20053;-80
2021/04/26 10:56:33;;;;;;;1.45;0.70;;;21.00;33.40;;;;;;5056864;28;20102;-78
2021/04/26 10:59:15;;;;;;;5.07;0.98;;;21.00;35.50;;;;;;5057478;28;20558;-80
2021/04/26 11:01:48;;;;;;;1.42;0.70;;;20.00;35.90;;;;;;5056571;28;20136;-80
2021/04/26 11:04:15;;;;;;;2.03;0.70;;;20.10;35.20;;;;;;5058022;28;20057;-80
2021/04/26 11:07:04;;;;;;;1.98;0.60;;;19.00;34.90;;;;;;5058048;28;20051;-80
2021/04/26 11:09:39;;;;;;;1.92;0.80;;;18.90;36.90;;;;;;5058368;28;20068;-80
2021/04/26 11:12:33;;;;;;;1.55;1.30;;;20.30;38.10;;;;;;5060417;28;20051;-79
2021/04/26 11:15:19;;;;;;;5.50;0.90;;;20.20;36.00;;;;;;5063042;28;20123;-79
2021/04/26 11:17:46;;;;;;;3.25;1.80;;;18.30;37.10;;;;;;5060127;28;20562;-80
2021/04/26 11:20:15;;;;;;;4.38;1.13;;;18.60;37.70;;;;;;5058668;28;20475;-79
2021/04/26 11:22:42;;;;;;;4.25;0.60;;;18.50;38.30;;;;;;5059181;28;20045;-80
2021/04/26 11:25:34;;;;;;;1.80;0.80;;;17.60;38.30;;;;;;5060920;28;20496;-79
2021/04/26 11:28:01;;;;;;;1.30;0.70;;;17.40;37.20;;;;;;5061293;28;20381;-80
2021/04/26 11:30:33;;;;;;;4.18;0.70;;;16.60;38.10;;;;;;5060217;28;20053;-79
2021/04/26 11:33:07;;;;;;;7.32;0.98;;;15.90;39.60;;;;;;5059596;28;20124;-80
2021/04/26 11:35:36;;;;;;;1.45;0.70;;;16.50;40.80;;;;;;5062232;28;20045;-79
2021/04/26 11:38:02;;;;;;;1.58;0.90;;;15.30;39.40;;;;;;5060478;28;20093;-80
2021/04/26 11:40:32;;;;;;;1.83;0.63;;;15.20;41.20;;;;;;5060780;28;20511;-80
2021/04/26 11:43:07;;;;;;;4.53;1.30;;;15.20;42.50;;;;;;5061413;28;20102;-79
2021/04/26 11:45:36;;;;;;;3.72;2.35;;;15.20;42.30;;;;;;5060322;28;20118;-81
2021/04/26 11:48:03;;;;;;;9.10;1.20;;;15.60;42.20;;;;;;5060082;28;20049;-80
2021/04/26 11:50:30;;;;;;;7.55;5.07;;;16.80;41.90;;;;;;5061925;28;20056;-80
2021/04/26 11:52:56;;;;;;;1.25;0.80;;;17.40;41.40;;;;;;5065539;28;20048;-80
2021/04/26 11:55:23;;;;;;;7.60;1.00;;;16.90;40.70;;;;;;5078957;28;20483;-78
2021/04/26 11:57:54;;;;;;;1.50;0.93;;;17.20;40.40;;;;;;5077535;28;20106;-79
2021/04/26 12:00:28;;;;;;;4.43;1.10;;;17.40;40.40;;;;;;5077046;28;20563;-78
2021/04/26 12:03:04;;;;;;;3.00;0.60;;;17.80;40.90;;;;;;5076679;28;20059;-79
2021/04/26 12:05:31;;;;;;;10.27;6.05;;;19.90;39.10;;;;;;5077542;28;20055;-80
2021/04/26 12:07:57;;;;;;;2.58;0.60;;;20.60;35.10;;;;;;5079387;28;20049;-79
2021/04/26 12:10:30;;;;;;;3.55;2.63;;;19.60;35.30;;;;;;5077715;28;20084;-80
2021/04/26 12:13:04;;;;;;;1.73;1.33;;;18.70;36.80;;;;;;5079979;28;20044;-79
2021/04/26 12:15:32;;;;;;;3.97;0.70;;;18.30;40.10;;;;;;5078316;28;20312;-79
2021/04/26 12:18:00;;;;;;;9.48;7.75;;;17.20;39.10;;;;;;5079842;28;20101;-79
2021/04/26 12:20:33;;;;;;;7.13;1.05;;;15.80;39.80;;;;;;5079415;28;20454;-79
2021/04/26 12:23:02;;;;;;;3.93;1.20;;;15.70;41.30;;;;;;5080616;28;20471;-79
2021/04/26 12:25:36;;;;;;;1.20;0.70;;;15.40;43.00;;;;;;5079817;28;20135;-80
2021/04/26 12:28:05;;;;;;;1.60;0.80;;;15.40;41.10;;;;;;5080890;28;20063;-80
2021/04/26 12:30:36;;;;;;;3.33;2.25;;;15.20;40.30;;;;;;5081153;28;20048;-78
2021/04/26 12:33:03;;;;;;;1.40;0.95;;;15.20;41.50;;;;;;5075424;28;20044;-78
2021/04/26 12:35:31;;;;;;;1.95;0.95;;;15.70;43.10;;;;;;5075551;28;20131;-78
2021/04/26 12:37:59;;;;;;;2.65;2.28;;;15.30;42.60;;;;;;5075303;28;20511;-78
2021/04/26 12:40:31;;;;;;;1.20;1.20;;;15.40;43.30;;;;;;5075052;28;20087;-78
2021/04/26 12:42:57;;;;;;;2.15;0.98;;;15.60;40.90;;;;;;5075761;28;20135;-79
2021/04/26 12:45:29;;;;;;;1.35;0.90;;;15.60;40.20;;;;;;5075709;28;20045;-78
2021/04/26 12:47:59;;;;;;;5.53;1.30;;;15.50;40.50;;;;;;5075924;28;20484;-80
2021/04/26 12:50:38;;;;;;;1.90;1.27;;;15.30;42.10;;;;;;5076726;28;20110;-78
2021/04/26 12:53:13;;;;;;;4.72;1.40;;;15.50;42.40;;;;;;5075625;28;20048;-78
2021/04/26 12:55:51;;;;;;;3.70;0.75;;;14.80;42.70;;;;;;5075474;28;20503;-78
2021/04/26 12:58:25;;;;;;;5.07;0.80;;;15.10;44.10;;;;;;5076586;28;20088;-79